Time;durP1;ratioP1;P1;durP2;ratioP2;P2;SDS_P1;SDS_P2;PMS_P1;PMS_P2;Temp;Humidity;BMP_temperature;BMP_pressure;BME280_temperature;BME280_humidity;BME280_pressure;Samples;Min_cycle;Max_cycle;Signal;HPM_P1;HPM_P2
2023/10/28 00:01:00;;;;;;;9.75;5.65;;;10.60;99.90;;;;;;2063184;28;20053;-78
2023/10/28 00:02:00;;;;;;;13.90;7.55;;;10.60;99.90;;;;;;2063816;28;20057;-78
2023/10/28 00:03:01;;;;;;;14.13;8.43;;;10.50;99.90;;;;;;2054955;28;20031;-78
2023/10/28 00:04:02;;;;;;;19.52;9.57;;;10.50;99.90;;;;;;2046758;28;20287;-79
2023/10/28 00:05:05;;;;;;;17.08;9.07;;;10.40;99.90;;;;;;2062690;28;20034;-79
2023/10/28 00:06:07;;;;;;;14.73;8.48;;;10.40;99.90;;;;;;2059310;28;20048;-78
2023/10/28 00:07:08;;;;;;;11.20;6.07;;;10.30;99.90;;;;;;2055725;28;20034;-78
2023/10/28 00:08:09;;;;;;;13.13;6.47;;;10.30;99.90;;;;;;2056477;28;20035;-77
2023/10/28 00:09:10;;;;;;;7.55;5.45;;;10.20;99.90;;;;;;2057786;28;20049;-77
2023/10/28 00:10:11;;;;;;;8.75;5.90;;;10.20;99.90;;;;;;2059735;28;20053;-78
2023/10/28 00:11:12;;;;;;;7.90;5.85;;;10.20;99.90;;;;;;2058273;28;20030;-78
2023/10/28 00:12:14;;;;;;;7.80;5.00;;;10.20;99.90;;;;;;2059679;28;20109;-79
2023/10/28 00:13:15;;;;;;;10.00;5.90;;;10.10;99.90;;;;;;2063426;28;20033;-78
2023/10/28 00:14:17;;;;;;;12.13;6.53;;;10.10;99.90;;;;;;2056189;28;20033;-79
2023/10/28 00:15:21;;;;;;;9.70;6.30;;;10.10;99.90;;;;;;2061116;28;20045;-80
2023/10/28 00:16:22;;;;;;;8.45;5.03;;;10.10;99.90;;;;;;2051218;28;20034;-79
2023/10/28 00:17:24;;;;;;;9.27;4.90;;;10.10;99.90;;;;;;2048688;28;20027;-80
2023/10/28 00:18:24;;;;;;;8.40;4.45;;;10.10;99.90;;;;;;2057079;28;20678;-78
2023/10/28 00:19:26;;;;;;;11.82;4.78;;;10.10;99.90;;;;;;2045733;28;20031;-78
2023/10/28 00:20:29;;;;;;;7.75;4.28;;;10.10;99.90;;;;;;2049473;28;20803;-80
2023/10/28 00:21:29;;;;;;;6.82;4.13;;;10.10;99.90;;;;;;2052118;28;20021;-78
2023/10/28 00:22:31;;;;;;;6.03;3.60;;;10.10;99.90;;;;;;2051750;28;20026;-79
2023/10/28 00:23:32;;;;;;;7.65;4.00;;;10.10;99.90;;;;;;2053727;28;20015;-79
2023/10/28 00:24:32;;;;;;;9.13;4.00;;;10.10;99.90;;;;;;2053623;28;20093;-79
2023/10/28 00:25:33;;;;;;;8.00;3.80;;;10.10;99.90;;;;;;2051423;28;20517;-79
2023/10/28 00:26:34;;;;;;;6.78;3.60;;;10.10;99.90;;;;;;2051102;28;20444;-80
2023/10/28 00:27:34;;;;;;;8.23;3.45;;;10.10;99.90;;;;;;2051234;28;20488;-79
2023/10/28 00:28:35;;;;;;;5.63;3.53;;;10.10;99.90;;;;;;2055200;28;20061;-78
2023/10/28 00:29:36;;;;;;;7.72;3.30;;;10.10;99.90;;;;;;2049435;28;20106;-78
2023/10/28 00:30:40;;;;;;;6.75;3.42;;;10.10;99.90;;;;;;2043803;28;20811;-78
2023/10/28 00:31:40;;;;;;;7.35;3.70;;;10.10;99.90;;;;;;2047260;28;20166;-78
2023/10/28 00:32:42;;;;;;;4.57;3.70;;;10.10;99.90;;;;;;2051785;28;20647;-78
2023/10/28 00:33:42;;;;;;;7.43;3.60;;;10.10;99.90;;;;;;2050829;28;20053;-77
2023/10/28 00:34:43;;;;;;;5.22;3.50;;;10.00;99.90;;;;;;2048357;28;20498;-78
2023/10/28 00:35:44;;;;;;;5.93;3.30;;;10.00;99.90;;;;;;2062129;28;20091;-77
2023/10/28 00:36:45;;;;;;;7.38;3.28;;;10.00;99.90;;;;;;2052408;28;20590;-78
2023/10/28 00:37:45;;;;;;;5.20;3.30;;;10.00;99.90;;;;;;2050456;28;20625;-78
2023/10/28 00:38:46;;;;;;;6.93;3.30;;;10.00;99.90;;;;;;2052788;28;20042;-78
2023/10/28 00:39:47;;;;;;;7.85;3.20;;;10.00;99.90;;;;;;2048954;28;20121;-78
2023/10/28 00:40:50;;;;;;;7.63;3.97;;;10.00;99.90;;;;;;2056456;28;20030;-78
2023/10/28 00:41:52;;;;;;;4.82;3.10;;;10.00;99.90;;;;;;2061897;28;20038;-79
2023/10/28 00:42:52;;;;;;;6.40;3.40;;;10.00;99.90;;;;;;2054463;28;20019;-79
2023/10/28 00:43:54;;;;;;;6.30;3.50;;;10.00;99.90;;;;;;2050150;28;20030;-80
2023/10/28 00:44:55;;;;;;;5.90;3.60;;;9.90;99.90;;;;;;2053617;28;20062;-79
2023/10/28 00:45:56;;;;;;;6.32;3.40;;;9.90;99.90;;;;;;2055105;28;20081;-79
2023/10/28 00:46:58;;;;;;;5.18;3.40;;;9.90;99.90;;;;;;2050768;28;20019;-79
2023/10/28 00:47:58;;;;;;;4.72;3.20;;;9.90;99.90;;;;;;2052815;28;20027;-79
2023/10/28 00:48:59;;;;;;;9.02;3.60;;;9.90;99.90;;;;;;2059834;28;20469;-79
2023/10/28 00:50:01;;;;;;;7.05;3.50;;;9.80;99.90;;;;;;2053755;28;20019;-80
2023/10/28 00:51:01;;;;;;;4.30;3.08;;;9.80;99.90;;;;;;2049471;28;20130;-78
2023/10/28 00:52:02;;;;;;;9.80;3.70;;;9.80;99.90;;;;;;2052301;28;20023;-78
2023/10/28 00:53:03;;;;;;;6.60;3.50;;;9.80;99.90;;;;;;2056294;28;20026;-78
2023/10/28 00:54:03;;;;;;;5.47;3.50;;;9.70;99.90;;;;;;2055709;28;20555;-79
2023/10/28 00:55:05;;;;;;;8.45;4.00;;;9.70;99.90;;;;;;2057857;28;20643;-77
2023/10/28 00:56:06;;;;;;;7.13;3.53;;;9.70;99.90;;;;;;2059113;28;20030;-77
2023/10/28 00:57:06;;;;;;;7.55;3.30;;;9.60;99.90;;;;;;2044700;28;20027;-79
2023/10/28 00:58:09;;;;;;;6.70;3.90;;;9.60;99.90;;;;;;2050942;28;20437;-77
2023/10/28 00:59:11;;;;;;;4.50;3.53;;;9.60;99.90;;;;;;2050990;28;20031;-79
2023/10/28 01:00:12;;;;;;;4.85;3.50;;;9.60;99.90;;;;;;2046770;28;20059;-78
2023/10/28 01:01:14;;;;;;;7.43;3.80;;;9.60;99.90;;;;;;2054127;28;20031;-77
2023/10/28 01:02:14;;;;;;;4.30;3.50;;;9.50;99.90;;;;;;2058054;28;20038;-78
2023/10/28 01:03:16;;;;;;;6.28;3.60;;;9.50;99.90;;;;;;2051290;28;20039;-79
2023/10/28 01:04:16;;;;;;;6.78;3.60;;;9.60;99.90;;;;;;2051075;28;20039;-78
2023/10/28 01:05:17;;;;;;;5.95;3.50;;;9.60;99.90;;;;;;2059484;28;20108;-79
2023/10/28 01:06:17;;;;;;;6.68;3.70;;;9.50;99.90;;;;;;2062184;28;20038;-77
2023/10/28 01:07:18;;;;;;;6.68;3.30;;;9.50;99.90;;;;;;2055623;28;20462;-78
2023/10/28 01:08:19;;;;;;;6.13;3.25;;;9.50;99.90;;;;;;2052938;28;20415;-78
2023/10/28 01:09:19;;;;;;;5.32;3.13;;;9.60;99.90;;;;;;2058816;28;20621;-80
2023/10/28 01:10:31;;;;;;;6.88;3.25;;;9.60;99.90;;;;;;2045826;28;20680;-78
2023/10/28 01:11:35;;;;;;;6.28;3.00;;;9.70;99.90;;;;;;2037006;29;20028;-79
2023/10/28 01:12:37;;;;;;;4.95;3.28;;;9.70;99.90;;;;;;2041793;28;20502;-78
2023/10/28 01:13:38;;;;;;;5.25;3.00;;;9.80;99.90;;;;;;2055323;28;20566;-79
2023/10/28 01:14:39;;;;;;;5.00;3.20;;;9.80;99.90;;;;;;2058573;28;20077;-79
2023/10/28 01:15:40;;;;;;;5.45;3.00;;;9.80;99.90;;;;;;2058953;28;20102;-79
2023/10/28 01:16:41;;;;;;;7.13;3.10;;;9.80;99.90;;;;;;2058303;28;20584;-75
2023/10/28 01:17:42;;;;;;;5.28;2.78;;;9.90;99.90;;;;;;2046841;28;20043;-76
2023/10/28 01:18:43;;;;;;;6.00;3.08;;;9.80;99.90;;;;;;2050756;28;20109;-78
2023/10/28 01:19:43;;;;;;;5.93;2.97;;;9.90;99.90;;;;;;2046544;28;20486;-78
2023/10/28 01:20:44;;;;;;;4.72;2.92;;;9.90;99.90;;;;;;2046925;28;20053;-79
2023/10/28 01:21:45;;;;;;;4.13;2.88;;;9.90;99.90;;;;;;2058853;28;20070;-79
2023/10/28 01:22:45;;;;;;;4.72;3.00;;;9.90;99.90;;;;;;2054529;28;20597;-78
2023/10/28 01:23:46;;;;;;;7.05;2.80;;;9.90;99.90;;;;;;2048744;28;20030;-79
2023/10/28 01:24:49;;;;;;;5.85;2.80;;;9.90;99.90;;;;;;2050068;28;20102;-77
2023/10/28 01:25:49;;;;;;;4.95;2.70;;;9.90;99.90;;;;;;2051465;28;20026;-76
2023/10/28 01:26:50;;;;;;;5.10;2.80;;;10.00;99.90;;;;;;2057070;28;20585;-77
2023/10/28 01:27:51;;;;;;;5.55;2.88;;;10.00;99.90;;;;;;2053881;28;20054;-77
2023/10/28 01:28:51;;;;;;;4.13;2.75;;;10.00;99.90;;;;;;2057052;28;20041;-78
2023/10/28 01:29:52;;;;;;;5.00;2.90;;;10.00;99.90;;;;;;2058886;28;20124;-78
2023/10/28 01:30:52;;;;;;;6.43;2.92;;;10.00;99.90;;;;;;2058708;28;20953;-78
2023/10/28 01:31:53;;;;;;;5.88;2.80;;;10.00;99.90;;;;;;2059777;28;20064;-77
2023/10/28 01:32:54;;;;;;;4.07;2.50;;;10.00;99.90;;;;;;2046350;28;20110;-78
2023/10/28 01:33:55;;;;;;;7.10;2.63;;;10.00;99.90;;;;;;2052625;28;20105;-78
2023/10/28 01:34:55;;;;;;;5.93;2.90;;;10.00;99.90;;;;;;2050076;28;20022;-75
2023/10/28 01:35:56;;;;;;;5.15;2.90;;;10.00;99.90;;;;;;2051361;28;20034;-78
2023/10/28 01:36:57;;;;;;;4.28;2.60;;;10.00;99.90;;;;;;2049163;28;20109;-77
2023/10/28 01:37:58;;;;;;;5.00;2.95;;;10.00;99.90;;;;;;2054530;28;20129;-78
2023/10/28 01:38:58;;;;;;;4.25;2.50;;;10.00;99.90;;;;;;2047749;28;20127;-77
2023/10/28 01:39:59;;;;;;;4.55;2.70;;;10.00;99.90;;;;;;2050049;28;20038;-77
2023/10/28 01:41:00;;;;;;;7.93;2.88;;;10.00;99.90;;;;;;2052429;28;20027;-77
2023/10/28 01:42:01;;;;;;;5.97;2.95;;;10.00;99.90;;;;;;2047080;28;20041;-77
2023/10/28 01:43:03;;;;;;;6.35;2.90;;;10.00;99.90;;;;;;2051989;28;20102;-77
2023/10/28 01:44:04;;;;;;;5.45;2.65;;;10.00;99.90;;;;;;2055256;28;20073;-78
2023/10/28 01:45:05;;;;;;;6.53;2.80;;;10.00;99.90;;;;;;2058390;28;20045;-76
2023/10/28 01:46:06;;;;;;;6.05;2.67;;;10.00;99.90;;;;;;2057675;28;20042;-77
2023/10/28 01:47:08;;;;;;;8.10;2.92;;;10.00;99.90;;;;;;2062518;28;20026;-78
2023/10/28 01:48:08;;;;;;;7.43;3.10;;;10.00;99.90;;;;;;2045448;28;20027;-78
2023/10/28 01:49:10;;;;;;;5.22;3.05;;;10.00;99.90;;;;;;2042526;28;20563;-77
2023/10/28 01:50:11;;;;;;;5.55;3.13;;;10.10;99.90;;;;;;2045613;28;20019;-77
2023/10/28 01:51:12;;;;;;;4.40;3.25;;;10.10;99.90;;;;;;2049360;28;20051;-78
2023/10/28 01:52:13;;;;;;;7.00;3.05;;;10.00;99.90;;;;;;2061281;28;20040;-77
2023/10/28 01:53:13;;;;;;;5.38;3.22;;;10.00;99.90;;;;;;2046552;28;20396;-77
2023/10/28 01:54:14;;;;;;;6.57;3.20;;;10.00;99.90;;;;;;2039799;28;20099;-78
2023/10/28 01:55:15;;;;;;;5.60;3.17;;;10.00;99.90;;;;;;2053575;28;20034;-79
2023/10/28 01:56:15;;;;;;;4.35;2.90;;;10.00;99.90;;;;;;2050765;28;20031;-77
2023/10/28 01:57:16;;;;;;;7.57;3.40;;;10.00;99.90;;;;;;2054418;28;20035;-77
2023/10/28 01:58:17;;;;;;;7.43;3.08;;;10.00;99.90;;;;;;2058450;28;20061;-80
2023/10/28 01:59:18;;;;;;;5.25;2.50;;;10.00;99.90;;;;;;2050686;28;20065;-77
2023/10/28 02:00:19;;;;;;;5.20;2.75;;;9.90;99.90;;;;;;2054766;28;20034;-77
2023/10/28 02:01:22;;;;;;;5.28;3.15;;;9.90;99.90;;;;;;2062503;28;20030;-76
2023/10/28 02:02:23;;;;;;;7.05;3.25;;;9.90;99.90;;;;;;2059280;28;20038;-77
2023/10/28 02:03:24;;;;;;;4.55;2.97;;;9.90;99.90;;;;;;2061323;28;20056;-77
2023/10/28 02:04:24;;;;;;;6.55;3.30;;;9.90;99.90;;;;;;2057162;28;20034;-77
2023/10/28 02:05:27;;;;;;;7.35;3.40;;;9.90;99.90;;;;;;2047647;28;20015;-77
2023/10/28 02:06:27;;;;;;;6.75;3.03;;;9.90;99.90;;;;;;2050301;28;20031;-78
2023/10/28 02:07:28;;;;;;;5.72;3.20;;;9.90;99.90;;;;;;2054363;28;20093;-77
2023/10/28 02:08:28;;;;;;;4.53;2.80;;;9.90;99.90;;;;;;2056644;28;20035;-77
2023/10/28 02:09:31;;;;;;;5.35;2.95;;;9.90;99.90;;;;;;2060357;28;20030;-77
2023/10/28 02:10:32;;;;;;;8.38;3.10;;;10.00;99.90;;;;;;2061181;28;20092;-77
2023/10/28 02:11:33;;;;;;;4.65;3.30;;;10.00;99.90;;;;;;2054658;28;20022;-76
2023/10/28 02:12:37;;;;;;;5.25;3.72;;;9.90;99.90;;;;;;2059761;28;21376;-77
2023/10/28 02:13:37;;;;;;;6.57;3.40;;;10.00;99.90;;;;;;2062400;28;20397;-77
2023/10/28 02:14:40;;;;;;;6.28;3.00;;;10.00;99.90;;;;;;2058137;28;20030;-77
2023/10/28 02:15:43;;;;;;;5.10;3.00;;;10.00;99.90;;;;;;2054570;28;20054;-76
2023/10/28 02:16:43;;;;;;;5.65;2.85;;;10.00;99.90;;;;;;2050206;28;20389;-77
2023/10/28 02:17:45;;;;;;;9.00;3.00;;;10.00;99.90;;;;;;2053963;28;20045;-77
2023/10/28 02:18:47;;;;;;;6.43;2.90;;;10.00;99.90;;;;;;2054137;28;20049;-76
2023/10/28 02:19:47;;;;;;;6.85;2.75;;;10.00;99.90;;;;;;2053738;28;20034;-77
2023/10/28 02:20:48;;;;;;;5.70;2.88;;;10.00;99.90;;;;;;2058202;28;20092;-77
2023/10/28 02:21:49;;;;;;;4.75;3.15;;;10.00;99.90;;;;;;2058718;28;20058;-78
2023/10/28 02:22:50;;;;;;;8.20;3.70;;;10.00;99.90;;;;;;2061807;28;20058;-77
2023/10/28 02:23:52;;;;;;;6.20;3.33;;;10.00;99.90;;;;;;2054217;28;20081;-77
2023/10/28 02:24:52;;;;;;;9.00;4.30;;;10.00;99.90;;;;;;2059017;28;20584;-76
2023/10/28 02:25:53;;;;;;;7.25;4.35;;;10.00;99.90;;;;;;2058849;28;20038;-77
2023/10/28 02:26:53;;;;;;;10.32;4.90;;;9.90;99.90;;;;;;2058005;28;20088;-77
2023/10/28 02:27:54;;;;;;;10.20;4.45;;;9.90;99.90;;;;;;2050117;28;20030;-78
2023/10/28 02:28:56;;;;;;;7.63;4.43;;;9.80;99.90;;;;;;2052864;28;20027;-77
2023/10/28 02:29:56;;;;;;;9.55;5.47;;;9.80;99.90;;;;;;2045684;28;20023;-77
2023/10/28 02:30:57;;;;;;;9.30;5.70;;;9.80;99.90;;;;;;2043656;28;20661;-77
2023/10/28 02:31:59;;;;;;;8.90;5.60;;;9.80;99.90;;;;;;2060653;28;20034;-77
2023/10/28 02:33:00;;;;;;;7.65;4.80;;;9.80;99.90;;;;;;2053896;28;20035;-77
2023/10/28 02:34:01;;;;;;;5.93;4.53;;;9.80;99.90;;;;;;2049809;28;20034;-77
2023/10/28 02:35:02;;;;;;;8.68;5.18;;;9.80;99.90;;;;;;2050097;28;20031;-77
2023/10/28 02:36:05;;;;;;;8.48;4.00;;;9.80;99.90;;;;;;2051428;28;20070;-77
2023/10/28 02:37:06;;;;;;;7.03;4.97;;;9.80;99.90;;;;;;2052954;28;20082;-76
2023/10/28 02:38:06;;;;;;;8.48;5.10;;;9.80;99.90;;;;;;2049400;28;20026;-76
2023/10/28 02:39:07;;;;;;;10.25;4.80;;;9.70;99.90;;;;;;2050306;28;20106;-77
2023/10/28 02:40:08;;;;;;;6.10;4.32;;;9.70;99.90;;;;;;2058554;28;20034;-77
2023/10/28 02:41:09;;;;;;;8.95;4.75;;;9.60;99.90;;;;;;2062113;28;20556;-77
2023/10/28 02:42:09;;;;;;;6.90;4.07;;;9.60;99.90;;;;;;2057230;28;20084;-77
2023/10/28 02:43:10;;;;;;;7.82;4.22;;;9.60;99.90;;;;;;2052549;28;20035;-76
2023/10/28 02:44:11;;;;;;;7.45;4.50;;;9.50;99.90;;;;;;2061581;28;20030;-78
2023/10/28 02:45:11;;;;;;;6.40;4.30;;;9.50;99.90;;;;;;2058326;28;20032;-77
2023/10/28 02:46:21;;;;;;;6.78;4.35;;;9.40;99.90;;;;;;2055973;28;20031;-77
2023/10/28 02:47:23;;;;;;;9.68;4.70;;;9.40;99.90;;;;;;2051402;28;20034;-77
2023/10/28 02:48:24;;;;;;;6.68;4.55;;;9.40;99.90;;;;;;2050019;28;20475;-78
2023/10/28 02:49:25;;;;;;;7.18;4.45;;;9.40;99.90;;;;;;2051109;28;20039;-77
2023/10/28 02:50:25;;;;;;;7.22;4.07;;;9.30;99.90;;;;;;2050133;28;20049;-77
2023/10/28 02:51:26;;;;;;;6.43;4.32;;;9.30;99.90;;;;;;2052194;28;20044;-77
2023/10/28 02:52:27;;;;;;;6.90;4.38;;;9.30;99.90;;;;;;2058046;28;20080;-77
2023/10/28 02:53:27;;;;;;;6.63;4.28;;;9.20;99.90;;;;;;2042108;28;20041;-77
2023/10/28 02:54:28;;;;;;;9.18;4.80;;;9.20;99.90;;;;;;2040315;28;20054;-78
2023/10/28 02:55:29;;;;;;;6.97;4.38;;;9.10;99.90;;;;;;2059369;28;20493;-78
2023/10/28 02:56:31;;;;;;;9.30;4.80;;;9.10;99.90;;;;;;2047682;28;20058;-78
2023/10/28 02:57:32;;;;;;;8.63;4.80;;;9.10;99.90;;;;;;2050005;28;20035;-78
2023/10/28 02:58:32;;;;;;;7.88;4.68;;;9.10;99.90;;;;;;2051931;28;20023;-78
2023/10/28 02:59:33;;;;;;;8.65;4.80;;;9.00;99.90;;;;;;2054435;28;20046;-77
2023/10/28 03:00:34;;;;;;;7.70;4.68;;;9.00;99.90;;;;;;2059979;28;20144;-78
2023/10/28 03:01:36;;;;;;;10.23;5.10;;;9.00;99.90;;;;;;2056375;28;20129;-78
2023/10/28 03:02:37;;;;;;;6.78;4.70;;;8.90;99.90;;;;;;2044059;28;20600;-77
2023/10/28 03:03:39;;;;;;;9.55;4.97;;;8.90;99.90;;;;;;2049078;28;20106;-77
2023/10/28 03:04:40;;;;;;;8.45;4.88;;;8.90;99.90;;;;;;2050653;28;20042;-78
2023/10/28 03:05:40;;;;;;;7.70;4.78;;;8.90;99.90;;;;;;2039886;28;20030;-77
2023/10/28 03:06:41;;;;;;;6.65;5.05;;;8.90;99.90;;;;;;2050716;28;20108;-77
2023/10/28 03:07:42;;;;;;;7.40;5.00;;;8.90;99.90;;;;;;2061960;28;20535;-77
2023/10/28 03:08:43;;;;;;;10.10;5.38;;;8.80;99.90;;;;;;2057825;28;20366;-77
2023/10/28 03:09:44;;;;;;;11.07;5.20;;;8.80;99.90;;;;;;2046519;28;20042;-77
2023/10/28 03:10:44;;;;;;;10.75;5.32;;;8.80;99.90;;;;;;2039500;28;20028;-77
2023/10/28 03:11:45;;;;;;;9.40;5.47;;;8.80;99.90;;;;;;2041541;28;20039;-77
2023/10/28 03:12:47;;;;;;;9.57;5.45;;;8.80;99.90;;;;;;2045027;28;20554;-77
2023/10/28 03:13:47;;;;;;;8.48;5.50;;;8.80;99.90;;;;;;2045859;28;20035;-76
2023/10/28 03:14:49;;;;;;;8.27;5.47;;;8.80;99.90;;;;;;2045390;28;20027;-77
2023/10/28 03:15:49;;;;;;;9.73;5.28;;;8.80;99.90;;;;;;2049805;28;20117;-77
2023/10/28 03:16:50;;;;;;;11.52;5.43;;;8.80;99.90;;;;;;2053526;28;20042;-77
2023/10/28 03:17:51;;;;;;;8.70;5.60;;;8.80;99.90;;;;;;2053785;28;20026;-76
2023/10/28 03:18:51;;;;;;;8.00;5.32;;;8.80;99.90;;;;;;2058465;28;20038;-77
2023/10/28 03:19:52;;;;;;;8.38;5.18;;;8.80;99.90;;;;;;2058188;28;20050;-77
2023/10/28 03:20:55;;;;;;;7.53;5.32;;;8.70;99.90;;;;;;2061818;28;20033;-78
2023/10/28 03:21:56;;;;;;;11.80;5.25;;;8.80;99.90;;;;;;2059178;28;20106;-77
2023/10/28 03:22:56;;;;;;;9.93;5.82;;;8.80;99.90;;;;;;2044497;28;20187;-78
2023/10/28 03:23:57;;;;;;;8.20;5.70;;;8.70;99.90;;;;;;2045505;28;20031;-76
2023/10/28 03:24:58;;;;;;;10.52;5.60;;;8.70;99.90;;;;;;2058485;28;20023;-76
2023/10/28 03:25:58;;;;;;;10.00;5.47;;;8.70;99.90;;;;;;2049819;28;20022;-77
2023/10/28 03:26:59;;;;;;;9.95;5.70;;;8.80;99.90;;;;;;2049794;28;20037;-77
2023/10/28 03:28:04;;;;;;;10.27;5.68;;;8.70;99.90;;;;;;2055883;28;20027;-77
2023/10/28 03:29:06;;;;;;;8.63;5.55;;;8.70;99.90;;;;;;2044710;28;20086;-77
2023/10/28 03:30:07;;;;;;;10.57;5.00;;;8.70;99.90;;;;;;2049764;28;20041;-77
2023/10/28 03:31:11;;;;;;;9.43;5.40;;;8.80;99.90;;;;;;2042346;28;20119;-77
2023/10/28 03:32:12;;;;;;;9.63;5.65;;;8.80;99.90;;;;;;2057094;28;20466;-77
2023/10/28 03:33:12;;;;;;;8.00;5.03;;;8.80;99.90;;;;;;2059059;28;20077;-78
2023/10/28 03:34:13;;;;;;;8.88;4.90;;;8.80;99.90;;;;;;2055059;28;20027;-78
2023/10/28 03:35:14;;;;;;;9.45;5.28;;;8.70;99.90;;;;;;2056290;28;20077;-78
2023/10/28 03:36:15;;;;;;;8.85;5.00;;;8.70;99.90;;;;;;2041958;28;20087;-78
2023/10/28 03:37:15;;;;;;;11.20;5.00;;;8.70;99.90;;;;;;2040982;28;20350;-76
2023/10/28 03:38:16;;;;;;;8.18;4.90;;;8.70;99.90;;;;;;2049869;28;20035;-76
2023/10/28 03:39:17;;;;;;;7.45;4.50;;;8.80;99.90;;;;;;2047498;28;20062;-77
2023/10/28 03:40:18;;;;;;;7.18;4.70;;;8.80;99.90;;;;;;2049534;28;20038;-77
2023/10/28 03:41:19;;;;;;;7.03;4.75;;;8.80;99.90;;;;;;2057811;28;20484;-78
2023/10/28 03:42:19;;;;;;;6.68;5.00;;;8.80;99.90;;;;;;2053172;28;20027;-77
2023/10/28 03:43:20;;;;;;;7.88;4.55;;;8.70;99.90;;;;;;2058224;28;20492;-78
2023/10/28 03:44:21;;;;;;;7.63;4.78;;;8.70;99.90;;;;;;2049925;28;20502;-77
2023/10/28 03:45:22;;;;;;;8.35;4.85;;;8.80;99.90;;;;;;2040123;28;20059;-77
2023/10/28 03:46:22;;;;;;;9.65;4.88;;;8.80;99.90;;;;;;2042061;28;20035;-77
2023/10/28 03:47:23;;;;;;;7.93;4.32;;;8.80;99.90;;;;;;2044902;28;20046;-77
2023/10/28 03:48:24;;;;;;;8.32;4.72;;;8.80;99.90;;;;;;2054079;28;20185;-77
2023/10/28 03:49:25;;;;;;;10.15;4.80;;;8.80;99.90;;;;;;2055622;28;20121;-77
2023/10/28 03:50:25;;;;;;;9.30;4.97;;;8.70;99.90;;;;;;2050631;28;20031;-77
2023/10/28 03:51:26;;;;;;;9.50;5.07;;;8.70;99.90;;;;;;2054077;28;20022;-77
2023/10/28 03:52:27;;;;;;;8.63;5.18;;;8.70;99.90;;;;;;2058284;28;20023;-77
2023/10/28 03:53:28;;;;;;;7.60;4.65;;;8.70;99.90;;;;;;2063191;28;20422;-78
2023/10/28 03:54:29;;;;;;;9.80;4.82;;;8.60;99.90;;;;;;2063156;28;20038;-78
2023/10/28 03:55:30;;;;;;;8.77;4.93;;;8.60;99.90;;;;;;2060709;28;20039;-78
2023/10/28 03:56:30;;;;;;;8.52;4.53;;;8.60;99.90;;;;;;2058809;28;20479;-77
2023/10/28 03:57:31;;;;;;;9.65;3.50;;;8.60;99.90;;;;;;2047110;28;20495;-77
2023/10/28 03:58:32;;;;;;;8.77;4.43;;;8.70;99.90;;;;;;2047301;28;20118;-77
2023/10/28 03:59:33;;;;;;;10.00;4.63;;;8.80;99.90;;;;;;2058218;28;20042;-77
2023/10/28 04:00:33;;;;;;;9.38;4.07;;;8.70;99.90;;;;;;2053418;28;20121;-77
2023/10/28 04:01:34;;;;;;;8.60;4.28;;;8.70;99.90;;;;;;2051969;28;20035;-76
2023/10/28 04:02:34;;;;;;;6.50;4.50;;;8.70;99.90;;;;;;2050360;28;20039;-75
2023/10/28 04:03:35;;;;;;;9.82;4.50;;;8.70;99.90;;;;;;2047662;28;20024;-75
2023/10/28 04:04:36;;;;;;;7.68;4.70;;;8.70;99.90;;;;;;2057414;28;20102;-76
2023/10/28 04:05:38;;;;;;;6.80;4.65;;;8.70;99.90;;;;;;2055166;28;20494;-79
2023/10/28 04:06:38;;;;;;;10.68;4.90;;;8.70;99.90;;;;;;2062173;28;20034;-78
2023/10/28 04:07:39;;;;;;;6.50;4.50;;;8.70;99.90;;;;;;2056653;28;20506;-78
2023/10/28 04:08:40;;;;;;;7.80;4.60;;;8.70;99.90;;;;;;2054295;28;20136;-76
2023/10/28 04:09:41;;;;;;;8.15;4.05;;;8.80;99.90;;;;;;2053882;28;20836;-76
2023/10/28 04:10:41;;;;;;;6.68;4.35;;;8.80;99.90;;;;;;2054099;28;20018;-76
2023/10/28 04:11:42;;;;;;;8.60;4.28;;;8.80;99.90;;;;;;2053706;28;20043;-76
2023/10/28 04:12:43;;;;;;;8.80;4.68;;;8.90;99.90;;;;;;2063096;28;20034;-77
2023/10/28 04:13:43;;;;;;;8.93;4.07;;;8.90;99.90;;;;;;2054351;28;20026;-77
2023/10/28 04:14:44;;;;;;;9.25;4.20;;;8.90;99.90;;;;;;2043843;28;20028;-78
2023/10/28 04:15:46;;;;;;;8.18;4.10;;;8.90;99.90;;;;;;2054520;28;20504;-77
2023/10/28 04:16:47;;;;;;;7.03;3.80;;;9.00;99.90;;;;;;2051711;28;20045;-77
2023/10/28 04:17:47;;;;;;;6.07;4.22;;;9.00;99.90;;;;;;2045853;28;20034;-77
2023/10/28 04:18:51;;;;;;;7.88;4.15;;;9.00;99.90;;;;;;2046016;28;20030;-77
2023/10/28 04:19:51;;;;;;;8.73;4.45;;;9.00;99.90;;;;;;2039890;28;20027;-77
2023/10/28 04:20:52;;;;;;;7.38;4.05;;;9.00;99.90;;;;;;2047047;28;20106;-77
2023/10/28 04:21:54;;;;;;;9.63;4.40;;;9.10;99.90;;;;;;2046683;28;20026;-77
2023/10/28 04:22:54;;;;;;;8.15;4.15;;;9.00;99.90;;;;;;2046270;28;20032;-76
2023/10/28 04:23:55;;;;;;;8.90;4.30;;;9.10;99.90;;;;;;2062330;28;20026;-77
2023/10/28 04:24:56;;;;;;;8.18;4.32;;;9.10;99.90;;;;;;2055001;28;20588;-77
2023/10/28 04:25:56;;;;;;;8.20;4.53;;;9.10;99.90;;;;;;2046956;28;20042;-77
2023/10/28 04:26:57;;;;;;;7.35;4.20;;;9.10;99.90;;;;;;2043900;28;20122;-77
2023/10/28 04:27:58;;;;;;;7.97;4.25;;;9.00;99.90;;;;;;2054337;28;20038;-76
2023/10/28 04:29:00;;;;;;;7.32;4.30;;;9.10;99.90;;;;;;2058961;28;20038;-77
2023/10/28 04:30:04;;;;;;;10.02;4.25;;;9.10;99.90;;;;;;2051916;28;20031;-77
2023/10/28 04:31:05;;;;;;;9.38;3.95;;;9.10;99.90;;;;;;2050187;28;20459;-77
2023/10/28 04:32:05;;;;;;;7.22;3.95;;;9.20;99.90;;;;;;2051077;28;20030;-78
2023/10/28 04:33:07;;;;;;;7.45;4.30;;;9.20;99.90;;;;;;2058734;28;20044;-77
2023/10/28 04:34:08;;;;;;;8.52;4.30;;;9.30;99.90;;;;;;2046706;28;20648;-77
2023/10/28 04:35:10;;;;;;;6.95;3.90;;;9.30;99.90;;;;;;2054992;28;20501;-77
2023/10/28 04:36:11;;;;;;;8.45;3.75;;;9.40;99.90;;;;;;2059731;28;20553;-77
2023/10/28 04:37:12;;;;;;;10.35;4.03;;;9.40;99.90;;;;;;2057873;28;20030;-77
2023/10/28 04:38:13;;;;;;;8.15;4.43;;;9.40;99.90;;;;;;2059475;28;20461;-77
2023/10/28 04:39:13;;;;;;;9.10;4.38;;;9.40;99.90;;;;;;2051584;28;20025;-78
2023/10/28 04:40:14;;;;;;;7.13;3.97;;;9.40;99.90;;;;;;2049946;28;20457;-78
2023/10/28 04:41:14;;;;;;;6.13;4.18;;;9.40;99.90;;;;;;2046289;28;20050;-78
2023/10/28 04:42:15;;;;;;;7.15;3.92;;;9.40;99.90;;;;;;2047947;28;20038;-78
2023/10/28 04:43:16;;;;;;;7.97;3.70;;;9.40;99.90;;;;;;2046209;28;20728;-78
2023/10/28 04:44:16;;;;;;;6.57;3.72;;;9.40;99.90;;;;;;2051284;28;20121;-78
2023/10/28 04:45:17;;;;;;;7.30;4.00;;;9.40;99.90;;;;;;2062710;28;20034;-78
2023/10/28 04:46:17;;;;;;;8.88;4.60;;;9.40;99.90;;;;;;2062751;28;20038;-78
2023/10/28 04:47:18;;;;;;;8.45;5.50;;;9.50;99.90;;;;;;2054875;28;20493;-78
2023/10/28 04:48:21;;;;;;;7.25;4.60;;;9.40;99.90;;;;;;2055810;28;20027;-76
2023/10/28 04:49:21;;;;;;;6.43;3.85;;;9.40;99.90;;;;;;2060649;28;20082;-77
2023/10/28 04:50:22;;;;;;;9.32;4.50;;;9.50;99.90;;;;;;2061875;28;20125;-77
2023/10/28 04:51:24;;;;;;;9.30;4.70;;;9.50;99.90;;;;;;2058742;28;20034;-76
2023/10/28 04:52:24;;;;;;;8.82;4.57;;;9.40;99.90;;;;;;2055419;28;20034;-76
2023/10/28 04:53:25;;;;;;;8.55;4.72;;;9.40;99.90;;;;;;2059204;28;20034;-77
2023/10/28 04:54:26;;;;;;;9.10;4.05;;;9.40;99.90;;;;;;2060191;28;20484;-77
2023/10/28 04:55:27;;;;;;;5.93;4.43;;;9.40;99.90;;;;;;2053243;28;20117;-78
2023/10/28 04:56:27;;;;;;;8.68;4.72;;;9.40;99.90;;;;;;2050727;28;20487;-77
2023/10/28 04:57:28;;;;;;;6.95;4.43;;;9.40;99.90;;;;;;2057240;28;20041;-77
2023/10/28 04:58:28;;;;;;;7.18;4.53;;;9.40;99.90;;;;;;2053527;28;20027;-77
2023/10/28 04:59:29;;;;;;;19.08;15.90;;;9.40;99.90;;;;;;2058219;28;20510;-78
2023/10/28 05:00:30;;;;;;;9.00;7.95;;;9.40;99.90;;;;;;2049101;28;20162;-77
2023/10/28 05:01:31;;;;;;;6.45;4.85;;;9.50;99.90;;;;;;2058344;28;20026;-77
2023/10/28 05:02:34;;;;;;;9.05;4.30;;;9.50;99.90;;;;;;2056028;28;20199;-77
2023/10/28 05:03:34;;;;;;;9.02;3.90;;;9.50;99.90;;;;;;2059669;28;20030;-78
2023/10/28 05:04:35;;;;;;;5.95;3.63;;;9.50;99.90;;;;;;2051426;28;20524;-77
2023/10/28 05:05:37;;;;;;;5.80;3.85;;;9.50;99.90;;;;;;2043736;28;20086;-77
2023/10/28 05:06:37;;;;;;;6.72;4.20;;;9.50;99.90;;;;;;2049333;28;20030;-77
2023/10/28 05:07:38;;;;;;;6.47;3.95;;;9.60;99.90;;;;;;2056406;28;20026;-78
2023/10/28 05:08:39;;;;;;;6.53;3.83;;;9.60;99.90;;;;;;2042368;28;20063;-78
2023/10/28 05:09:39;;;;;;;6.20;4.18;;;9.60;99.90;;;;;;2058798;28;20033;-78
2023/10/28 05:10:41;;;;;;;7.85;4.18;;;9.60;99.90;;;;;;2059035;28;20638;-78
2023/10/28 05:11:42;;;;;;;7.70;4.00;;;9.60;99.90;;;;;;2053022;28;20054;-78
2023/10/28 05:12:43;;;;;;;8.13;4.30;;;9.60;99.90;;;;;;2057855;28;20022;-78
2023/10/28 05:13:44;;;;;;;9.70;4.40;;;9.60;99.90;;;;;;2058020;28;20737;-78
2023/10/28 05:14:44;;;;;;;7.18;4.65;;;9.60;99.90;;;;;;2058289;28;20560;-78
2023/10/28 05:15:45;;;;;;;6.78;4.50;;;9.60;99.90;;;;;;2050236;28;20031;-78
2023/10/28 05:16:45;;;;;;;9.30;5.95;;;9.60;99.90;;;;;;2049288;28;20091;-78
2023/10/28 05:17:46;;;;;;;8.73;4.60;;;9.60;99.90;;;;;;2055604;28;20528;-78
2023/10/28 05:18:47;;;;;;;9.40;4.60;;;9.60;99.90;;;;;;2058467;28;20104;-78
2023/10/28 05:19:47;;;;;;;8.82;4.60;;;9.60;99.90;;;;;;2060000;28;20057;-78
2023/10/28 05:20:48;;;;;;;8.23;4.50;;;9.60;99.90;;;;;;2061922;28;20214;-79